sensor_id;sensor_type;location;lat;lon;timestamp;P1;durP1;ratioP1;P2;durP2;ratioP2
37383;SDS011;23258;49.718;11.082;2023-03-03T00:02:00;9.30;;;7.73;;
37383;SDS011;23258;49.718;11.082;2023-03-03T00:04:29;13.17;;;7.50;;
37383;SDS011;23258;49.718;11.082;2023-03-03T00:06:59;9.93;;;7.97;;
37383;SDS011;23258;49.718;11.082;2023-03-03T00:09:29;19.30;;;11.77;;
37383;SDS011;23258;49.718;11.082;2023-03-03T00:11:58;50.60;;;21.53;;
37383;SDS011;23258;49.718;11.082;2023-03-03T00:14:31;66.50;;;30.67;;
37383;SDS011;23258;49.718;11.082;2023-03-03T00:17:02;30.83;;;17.87;;
37383;SDS011;23258;49.718;11.082;2023-03-03T00:19:43;18.77;;;11.50;;
37383;SDS011;23258;49.718;11.082;2023-03-03T00:22:13;13.33;;;8.30;;
37383;SDS011;23258;49.718;11.082;2023-03-03T00:24:44;14.97;;;8.90;;
37383;SDS011;23258;49.718;11.082;2023-03-03T00:27:16;11.47;;;8.10;;
37383;SDS011;23258;49.718;11.082;2023-03-03T00:29:49;27.73;;;14.13;;
37383;SDS011;23258;49.718;11.082;2023-03-03T00:32:22;46.83;;;24.17;;
37383;SDS011;23258;49.718;11.082;2023-03-03T00:34:53;56.10;;;29.57;;
37383;SDS011;23258;49.718;11.082;2023-03-03T00:37:27;45.47;;;23.70;;
37383;SDS011;23258;49.718;11.082;2023-03-03T00:39:58;23.67;;;16.10;;
37383;SDS011;23258;49.718;11.082;2023-03-03T00:42:31;15.90;;;12.20;;
37383;SDS011;23258;49.718;11.082;2023-03-03T00:45:07;19.43;;;13.10;;
37383;SDS011;23258;49.718;11.082;2023-03-03T00:47:46;11.87;;;8.73;;
37383;SDS011;23258;49.718;11.082;2023-03-03T00:50:20;12.30;;;8.47;;
37383;SDS011;23258;49.718;11.082;2023-03-03T00:52:54;11.00;;;8.10;;
37383;SDS011;23258;49.718;11.082;2023-03-03T00:55:26;12.93;;;7.87;;
37383;SDS011;23258;49.718;11.082;2023-03-03T00:57:56;9.90;;;7.57;;
37383;SDS011;23258;49.718;11.082;2023-03-03T01:00:34;11.20;;;8.17;;
37383;SDS011;23258;49.718;11.082;2023-03-03T01:03:06;10.00;;;7.77;;
37383;SDS011;23258;49.718;11.082;2023-03-03T01:05:36;14.27;;;8.40;;
37383;SDS011;23258;49.718;11.082;2023-03-03T01:08:06;14.20;;;9.23;;
37383;SDS011;23258;49.718;11.082;2023-03-03T01:10:37;12.67;;;8.07;;
37383;SDS011;23258;49.718;11.082;2023-03-03T01:13:07;10.53;;;7.67;;
37383;SDS011;23258;49.718;11.082;2023-03-03T01:15:41;8.47;;;7.27;;
37383;SDS011;23258;49.718;11.082;2023-03-03T01:18:12;12.53;;;8.03;;
37383;SDS011;23258;49.718;11.082;2023-03-03T01:20:42;10.03;;;7.17;;
37383;SDS011;23258;49.718;11.082;2023-03-03T01:23:11;12.00;;;7.90;;
37383;SDS011;23258;49.718;11.082;2023-03-03T01:25:41;12.23;;;8.13;;
37383;SDS011;23258;49.718;11.082;2023-03-03T01:28:11;10.03;;;7.67;;
37383;SDS011;23258;49.718;11.082;2023-03-03T01:30:43;11.77;;;7.73;;
37383;SDS011;23258;49.718;11.082;2023-03-03T01:33:13;11.37;;;8.53;;
37383;SDS011;23258;49.718;11.082;2023-03-03T01:35:43;12.50;;;8.27;;
37383;SDS011;23258;49.718;11.082;2023-03-03T01:38:14;13.73;;;8.70;;
37383;SDS011;23258;49.718;11.082;2023-03-03T01:40:50;11.50;;;8.73;;
37383;SDS011;23258;49.718;11.082;2023-03-03T01:43:20;16.23;;;8.60;;
37383;SDS011;23258;49.718;11.082;2023-03-03T01:48:37;12.23;;;7.80;;
37383;SDS011;23258;49.718;11.082;2023-03-03T01:51:10;13.87;;;8.70;;
37383;SDS011;23258;49.718;11.082;2023-03-03T01:53:41;10.80;;;8.03;;
37383;SDS011;23258;49.718;11.082;2023-03-03T01:56:12;14.57;;;7.90;;
37383;SDS011;23258;49.718;11.082;2023-03-03T01:58:43;14.07;;;8.90;;
37383;SDS011;23258;49.718;11.082;2023-03-03T02:01:15;10.80;;;8.73;;
37383;SDS011;23258;49.718;11.082;2023-03-03T02:03:48;14.70;;;8.77;;
37383;SDS011;23258;49.718;11.082;2023-03-03T02:06:19;15.63;;;9.53;;
37383;SDS011;23258;49.718;11.082;2023-03-03T02:08:50;14.53;;;8.83;;
37383;SDS011;23258;49.718;11.082;2023-03-03T02:11:22;42.30;;;23.00;;
37383;SDS011;23258;49.718;11.082;2023-03-03T02:13:51;22.47;;;12.97;;
37383;SDS011;23258;49.718;11.082;2023-03-03T02:16:21;87.00;;;44.03;;
37383;SDS011;23258;49.718;11.082;2023-03-03T02:18:54;89.30;;;46.43;;
37383;SDS011;23258;49.718;11.082;2023-03-03T02:21:24;28.83;;;19.27;;
37383;SDS011;23258;49.718;11.082;2023-03-03T02:23:56;14.30;;;10.40;;
37383;SDS011;23258;49.718;11.082;2023-03-03T02:26:30;12.83;;;10.63;;
37383;SDS011;23258;49.718;11.082;2023-03-03T02:29:04;13.23;;;10.10;;
37383;SDS011;23258;49.718;11.082;2023-03-03T02:31:36;12.73;;;9.10;;
37383;SDS011;23258;49.718;11.082;2023-03-03T02:34:06;14.93;;;9.03;;
37383;SDS011;23258;49.718;11.082;2023-03-03T02:36:37;13.53;;;8.30;;
37383;SDS011;23258;49.718;11.082;2023-03-03T02:39:07;11.03;;;7.67;;
37383;SDS011;23258;49.718;11.082;2023-03-03T02:41:41;13.93;;;9.33;;
37383;SDS011;23258;49.718;11.082;2023-03-03T02:44:13;12.83;;;9.43;;
37383;SDS011;23258;49.718;11.082;2023-03-03T02:46:44;11.77;;;8.53;;
37383;SDS011;23258;49.718;11.082;2023-03-03T02:49:16;14.93;;;9.20;;
37383;SDS011;23258;49.718;11.082;2023-03-03T02:51:46;12.23;;;8.57;;
37383;SDS011;23258;49.718;11.082;2023-03-03T02:54:17;11.70;;;8.93;;
37383;SDS011;23258;49.718;11.082;2023-03-03T02:56:49;13.27;;;9.53;;
37383;SDS011;23258;49.718;11.082;2023-03-03T02:59:19;14.73;;;8.97;;
37383;SDS011;23258;49.718;11.082;2023-03-03T03:01:50;11.87;;;8.70;;
37383;SDS011;23258;49.718;11.082;2023-03-03T03:04:20;14.87;;;9.30;;
37383;SDS011;23258;49.718;11.082;2023-03-03T03:06:50;15.50;;;9.10;;
37383;SDS011;23258;49.718;11.082;2023-03-03T03:09:22;12.23;;;7.77;;
37383;SDS011;23258;49.718;11.082;2023-03-03T03:11:56;13.57;;;9.30;;
37383;SDS011;23258;49.718;11.082;2023-03-03T03:14:31;19.07;;;9.73;;
37383;SDS011;23258;49.718;11.082;2023-03-03T03:17:01;16.57;;;9.30;;
37383;SDS011;23258;49.718;11.082;2023-03-03T03:19:31;10.67;;;8.93;;
37383;SDS011;23258;49.718;11.082;2023-03-03T03:22:01;15.20;;;9.70;;
37383;SDS011;23258;49.718;11.082;2023-03-03T03:24:33;15.97;;;10.10;;
37383;SDS011;23258;49.718;11.082;2023-03-03T03:27:09;15.27;;;9.80;;
37383;SDS011;23258;49.718;11.082;2023-03-03T03:29:38;19.57;;;9.83;;
37383;SDS011;23258;49.718;11.082;2023-03-03T03:32:08;17.47;;;10.40;;
37383;SDS011;23258;49.718;11.082;2023-03-03T03:34:38;15.47;;;9.77;;
37383;SDS011;23258;49.718;11.082;2023-03-03T03:37:09;13.40;;;9.13;;
37383;SDS011;23258;49.718;11.082;2023-03-03T03:39:40;16.73;;;10.90;;
37383;SDS011;23258;49.718;11.082;2023-03-03T03:42:12;19.33;;;11.20;;
37383;SDS011;23258;49.718;11.082;2023-03-03T03:44:42;15.23;;;10.40;;
37383;SDS011;23258;49.718;11.082;2023-03-03T03:47:13;17.50;;;10.70;;
37383;SDS011;23258;49.718;11.082;2023-03-03T03:49:43;17.10;;;10.20;;
37383;SDS011;23258;49.718;11.082;2023-03-03T03:52:12;16.80;;;10.07;;
37383;SDS011;23258;49.718;11.082;2023-03-03T03:54:43;16.70;;;11.27;;
37383;SDS011;23258;49.718;11.082;2023-03-03T03:57:15;13.60;;;10.43;;
37383;SDS011;23258;49.718;11.082;2023-03-03T03:59:45;18.97;;;11.67;;
37383;SDS011;23258;49.718;11.082;2023-03-03T04:02:14;15.13;;;10.17;;
37383;SDS011;23258;49.718;11.082;2023-03-03T04:04:44;15.67;;;10.10;;
37383;SDS011;23258;49.718;11.082;2023-03-03T04:07:14;15.63;;;10.47;;
37383;SDS011;23258;49.718;11.082;2023-03-03T04:09:44;15.87;;;10.27;;
37383;SDS011;23258;49.718;11.082;2023-03-03T04:12:16;15.70;;;10.13;;
37383;SDS011;23258;49.718;11.082;2023-03-03T04:14:46;15.40;;;10.43;;
37383;SDS011;23258;49.718;11.082;2023-03-03T04:17:16;17.17;;;10.43;;
37383;SDS011;23258;49.718;11.082;2023-03-03T04:19:45;14.13;;;10.43;;
37383;SDS011;23258;49.718;11.082;2023-03-03T04:22:15;13.80;;;10.27;;
37383;SDS011;23258;49.718;11.082;2023-03-03T04:24:45;15.20;;;10.90;;
37383;SDS011;23258;49.718;11.082;2023-03-03T04:27:19;16.33;;;11.37;;
37383;SDS011;23258;49.718;11.082;2023-03-03T04:29:48;20.37;;;11.60;;
37383;SDS011;23258;49.718;11.082;2023-03-03T04:32:18;20.17;;;12.53;;
37383;SDS011;23258;49.718;11.082;2023-03-03T04:34:48;18.17;;;11.23;;
37383;SDS011;23258;49.718;11.082;2023-03-03T04:37:32;20.40;;;13.40;;
37383;SDS011;23258;49.718;11.082;2023-03-03T04:40:03;19.33;;;12.43;;
37383;SDS011;23258;49.718;11.082;2023-03-03T04:42:36;20.50;;;12.53;;
37383;SDS011;23258;49.718;11.082;2023-03-03T04:45:08;21.37;;;13.17;;
37383;SDS011;23258;49.718;11.082;2023-03-03T04:47:38;17.83;;;13.13;;
37383;SDS011;23258;49.718;11.082;2023-03-03T04:50:09;16.57;;;13.37;;
37383;SDS011;23258;49.718;11.082;2023-03-03T04:52:40;20.47;;;12.40;;
37383;SDS011;23258;49.718;11.082;2023-03-03T04:55:11;18.77;;;12.47;;
37383;SDS011;23258;49.718;11.082;2023-03-03T04:57:47;23.83;;;13.33;;
37383;SDS011;23258;49.718;11.082;2023-03-03T05:00:17;18.13;;;12.13;;
37383;SDS011;23258;49.718;11.082;2023-03-03T05:02:47;18.33;;;12.23;;
37383;SDS011;23258;49.718;11.082;2023-03-03T05:05:17;24.67;;;12.77;;
37383;SDS011;23258;49.718;11.082;2023-03-03T05:07:46;20.43;;;13.37;;
37383;SDS011;23258;49.718;11.082;2023-03-03T05:10:16;19.37;;;12.77;;
37383;SDS011;23258;49.718;11.082;2023-03-03T05:12:49;23.17;;;12.87;;
37383;SDS011;23258;49.718;11.082;2023-03-03T05:15:18;24.53;;;14.33;;
37383;SDS011;23258;49.718;11.082;2023-03-03T05:17:48;18.90;;;13.90;;
37383;SDS011;23258;49.718;11.082;2023-03-03T05:20:19;20.17;;;13.47;;
37383;SDS011;23258;49.718;11.082;2023-03-03T05:22:48;24.57;;;13.53;;
37383;SDS011;23258;49.718;11.082;2023-03-03T05:25:18;19.27;;;13.43;;
37383;SDS011;23258;49.718;11.082;2023-03-03T05:27:50;22.63;;;14.17;;
37383;SDS011;23258;49.718;11.082;2023-03-03T05:30:20;25.40;;;14.50;;
37383;SDS011;23258;49.718;11.082;2023-03-03T05:32:50;21.80;;;13.03;;
37383;SDS011;23258;49.718;11.082;2023-03-03T05:35:19;22.37;;;13.73;;
37383;SDS011;23258;49.718;11.082;2023-03-03T05:37:49;23.83;;;13.37;;
37383;SDS011;23258;49.718;11.082;2023-03-03T05:40:18;22.63;;;13.83;;
37383;SDS011;23258;49.718;11.082;2023-03-03T05:42:51;24.27;;;13.40;;
37383;SDS011;23258;49.718;11.082;2023-03-03T05:45:20;19.10;;;13.13;;
37383;SDS011;23258;49.718;11.082;2023-03-03T05:47:50;21.87;;;13.80;;
37383;SDS011;23258;49.718;11.082;2023-03-03T05:50:20;25.90;;;15.10;;
37383;SDS011;23258;49.718;11.082;2023-03-03T05:52:50;22.83;;;14.00;;
37383;SDS011;23258;49.718;11.082;2023-03-03T05:55:20;22.50;;;13.50;;
37383;SDS011;23258;49.718;11.082;2023-03-03T05:57:52;27.03;;;15.67;;
37383;SDS011;23258;49.718;11.082;2023-03-03T06:00:22;23.10;;;14.03;;
37383;SDS011;23258;49.718;11.082;2023-03-03T06:02:52;21.53;;;14.63;;
37383;SDS011;23258;49.718;11.082;2023-03-03T06:05:21;23.60;;;14.27;;
37383;SDS011;23258;49.718;11.082;2023-03-03T06:07:51;22.23;;;15.63;;
37383;SDS011;23258;49.718;11.082;2023-03-03T06:10:20;29.77;;;15.93;;
37383;SDS011;23258;49.718;11.082;2023-03-03T06:12:56;28.00;;;16.07;;
37383;SDS011;23258;49.718;11.082;2023-03-03T06:15:26;23.07;;;14.70;;
37383;SDS011;23258;49.718;11.082;2023-03-03T06:17:56;26.57;;;15.23;;
37383;SDS011;23258;49.718;11.082;2023-03-03T06:20:25;25.50;;;15.00;;
37383;SDS011;23258;49.718;11.082;2023-03-03T06:22:55;24.33;;;14.00;;
37383;SDS011;23258;49.718;11.082;2023-03-03T06:25:25;26.70;;;14.60;;
37383;SDS011;23258;49.718;11.082;2023-03-03T06:27:57;20.20;;;13.43;;
37383;SDS011;23258;49.718;11.082;2023-03-03T06:30:27;21.57;;;14.40;;
37383;SDS011;23258;49.718;11.082;2023-03-03T06:32:56;23.53;;;14.73;;
37383;SDS011;23258;49.718;11.082;2023-03-03T06:35:26;24.73;;;15.87;;
37383;SDS011;23258;49.718;11.082;2023-03-03T06:37:55;20.30;;;13.47;;
37383;SDS011;23258;49.718;11.082;2023-03-03T06:40:25;19.23;;;13.07;;
37383;SDS011;23258;49.718;11.082;2023-03-03T06:42:57;24.83;;;15.00;;
37383;SDS011;23258;49.718;11.082;2023-03-03T06:45:28;28.63;;;15.73;;
37383;SDS011;23258;49.718;11.082;2023-03-03T06:47:58;21.13;;;13.87;;
37383;SDS011;23258;49.718;11.082;2023-03-03T06:50:27;23.87;;;14.60;;
37383;SDS011;23258;49.718;11.082;2023-03-03T06:53:05;27.13;;;13.97;;
37383;SDS011;23258;49.718;11.082;2023-03-03T06:55:36;27.70;;;14.03;;
37383;SDS011;23258;49.718;11.082;2023-03-03T06:58:12;22.13;;;14.80;;
37383;SDS011;23258;49.718;11.082;2023-03-03T07:00:43;30.23;;;15.97;;
37383;SDS011;23258;49.718;11.082;2023-03-03T07:03:14;25.03;;;15.57;;
37383;SDS011;23258;49.718;11.082;2023-03-03T07:05:44;20.67;;;12.80;;
37383;SDS011;23258;49.718;11.082;2023-03-03T07:08:14;25.70;;;14.13;;
37383;SDS011;23258;49.718;11.082;2023-03-03T07:10:45;21.07;;;13.40;;
37383;SDS011;23258;49.718;11.082;2023-03-03T07:13:21;21.40;;;14.47;;
37383;SDS011;23258;49.718;11.082;2023-03-03T07:15:52;26.03;;;14.03;;
37383;SDS011;23258;49.718;11.082;2023-03-03T07:18:24;21.60;;;14.33;;
37383;SDS011;23258;49.718;11.082;2023-03-03T07:20:55;23.23;;;14.10;;
37383;SDS011;23258;49.718;11.082;2023-03-03T07:23:25;23.63;;;14.27;;
37383;SDS011;23258;49.718;11.082;2023-03-03T07:25:56;20.57;;;13.30;;
37383;SDS011;23258;49.718;11.082;2023-03-03T07:28:28;25.63;;;13.73;;
37383;SDS011;23258;49.718;11.082;2023-03-03T07:30:58;24.37;;;14.63;;
37383;SDS011;23258;49.718;11.082;2023-03-03T07:33:28;31.27;;;16.97;;
37383;SDS011;23258;49.718;11.082;2023-03-03T07:35:59;23.07;;;14.87;;
37383;SDS011;23258;49.718;11.082;2023-03-03T07:38:30;28.77;;;14.93;;
37383;SDS011;23258;49.718;11.082;2023-03-03T07:41:03;22.43;;;13.43;;
37383;SDS011;23258;49.718;11.082;2023-03-03T07:43:37;22.93;;;13.90;;
37383;SDS011;23258;49.718;11.082;2023-03-03T07:46:22;24.80;;;14.00;;
37383;SDS011;23258;49.718;11.082;2023-03-03T07:48:53;27.20;;;15.90;;
37383;SDS011;23258;49.718;11.082;2023-03-03T07:51:24;23.83;;;15.47;;
37383;SDS011;23258;49.718;11.082;2023-03-03T07:53:59;20.50;;;15.40;;
37383;SDS011;23258;49.718;11.082;2023-03-03T07:56:33;18.83;;;12.20;;
37383;SDS011;23258;49.718;11.082;2023-03-03T07:59:12;23.93;;;15.47;;
37383;SDS011;23258;49.718;11.082;2023-03-03T08:01:46;21.40;;;14.67;;
37383;SDS011;23258;49.718;11.082;2023-03-03T08:04:22;26.60;;;15.57;;
37383;SDS011;23258;49.718;11.082;2023-03-03T08:06:53;23.03;;;14.40;;
37383;SDS011;23258;49.718;11.082;2023-03-03T08:09:29;22.20;;;14.33;;
37383;SDS011;23258;49.718;11.082;2023-03-03T08:12:01;26.57;;;14.27;;
37383;SDS011;23258;49.718;11.082;2023-03-03T08:14:42;25.07;;;15.20;;
37383;SDS011;23258;49.718;11.082;2023-03-03T08:17:13;24.10;;;15.50;;
37383;SDS011;23258;49.718;11.082;2023-03-03T08:19:43;26.70;;;15.20;;
37383;SDS011;23258;49.718;11.082;2023-03-03T08:22:13;21.73;;;13.97;;
37383;SDS011;23258;49.718;11.082;2023-03-03T08:24:43;24.67;;;13.63;;
37383;SDS011;23258;49.718;11.082;2023-03-03T08:27:13;18.50;;;13.60;;
37383;SDS011;23258;49.718;11.082;2023-03-03T08:29:45;23.63;;;13.93;;
37383;SDS011;23258;49.718;11.082;2023-03-03T08:32:15;14.97;;;12.23;;
37383;SDS011;23258;49.718;11.082;2023-03-03T08:34:45;19.00;;;12.63;;
37383;SDS011;23258;49.718;11.082;2023-03-03T08:37:14;17.07;;;12.50;;
37383;SDS011;23258;49.718;11.082;2023-03-03T08:39:44;15.80;;;11.93;;
37383;SDS011;23258;49.718;11.082;2023-03-03T08:42:13;18.93;;;12.17;;
37383;SDS011;23258;49.718;11.082;2023-03-03T08:44:46;18.63;;;11.63;;
37383;SDS011;23258;49.718;11.082;2023-03-03T08:47:17;14.33;;;11.13;;
37383;SDS011;23258;49.718;11.082;2023-03-03T08:49:46;19.07;;;12.17;;
37383;SDS011;23258;49.718;11.082;2023-03-03T08:52:16;18.83;;;11.75;;
37383;SDS011;23258;49.718;11.082;2023-03-03T08:54:45;14.75;;;11.23;;
37383;SDS011;23258;49.718;11.082;2023-03-03T08:57:15;16.77;;;11.32;;
37383;SDS011;23258;49.718;11.082;2023-03-03T08:59:48;18.48;;;10.43;;
37383;SDS011;23258;49.718;11.082;2023-03-03T09:02:17;16.70;;;12.05;;
37383;SDS011;23258;49.718;11.082;2023-03-03T09:04:47;18.40;;;12.73;;
37383;SDS011;23258;49.718;11.082;2023-03-03T09:07:16;16.85;;;12.02;;
37383;SDS011;23258;49.718;11.082;2023-03-03T09:09:46;16.48;;;10.30;;
37383;SDS011;23258;49.718;11.082;2023-03-03T09:12:17;19.33;;;10.50;;
37383;SDS011;23258;49.718;11.082;2023-03-03T09:14:50;20.00;;;12.67;;
37383;SDS011;23258;49.718;11.082;2023-03-03T09:17:24;63.55;;;29.77;;
37383;SDS011;23258;49.718;11.082;2023-03-03T09:19:54;15.90;;;11.70;;
37383;SDS011;23258;49.718;11.082;2023-03-03T09:22:26;22.48;;;14.20;;
37383;SDS011;23258;49.718;11.082;2023-03-03T09:24:57;16.30;;;10.77;;
37383;SDS011;23258;49.718;11.082;2023-03-03T09:27:28;12.77;;;9.90;;
37383;SDS011;23258;49.718;11.082;2023-03-03T09:30:02;18.02;;;13.18;;
37383;SDS011;23258;49.718;11.082;2023-03-03T09:32:39;16.20;;;10.73;;
37383;SDS011;23258;49.718;11.082;2023-03-03T09:35:24;15.52;;;10.95;;
37383;SDS011;23258;49.718;11.082;2023-03-03T09:37:55;14.40;;;11.23;;
37383;SDS011;23258;49.718;11.082;2023-03-03T09:40:31;16.70;;;11.85;;
37383;SDS011;23258;49.718;11.082;2023-03-03T09:43:07;18.17;;;11.40;;
37383;SDS011;23258;49.718;11.082;2023-03-03T09:45:42;25.85;;;18.35;;
37383;SDS011;23258;49.718;11.082;2023-03-03T09:48:24;16.08;;;11.27;;
37383;SDS011;23258;49.718;11.082;2023-03-03T09:51:01;11.05;;;8.93;;
37383;SDS011;23258;49.718;11.082;2023-03-03T09:53:39;15.60;;;9.95;;
37383;SDS011;23258;49.718;11.082;2023-03-03T09:56:12;10.95;;;8.65;;
37383;SDS011;23258;49.718;11.082;2023-03-03T09:58:53;13.45;;;10.20;;
37383;SDS011;23258;49.718;11.082;2023-03-03T10:01:38;12.63;;;9.18;;
37383;SDS011;23258;49.718;11.082;2023-03-03T10:04:21;13.15;;;9.73;;
37383;SDS011;23258;49.718;11.082;2023-03-03T10:06:54;11.68;;;8.65;;
37383;SDS011;23258;49.718;11.082;2023-03-03T10:09:36;11.23;;;8.88;;
37383;SDS011;23258;49.718;11.082;2023-03-03T10:12:09;13.13;;;8.88;;
37383;SDS011;23258;49.718;11.082;2023-03-03T10:14:49;12.82;;;8.93;;
37383;SDS011;23258;49.718;11.082;2023-03-03T10:17:27;9.90;;;7.88;;
37383;SDS011;23258;49.718;11.082;2023-03-03T10:20:03;12.85;;;8.80;;
37383;SDS011;23258;49.718;11.082;2023-03-03T10:22:37;13.82;;;8.30;;
37383;SDS011;23258;49.718;11.082;2023-03-03T10:25:12;14.48;;;8.40;;
37383;SDS011;23258;49.718;11.082;2023-03-03T10:27:55;11.05;;;8.68;;
37383;SDS011;23258;49.718;11.082;2023-03-03T10:30:27;13.00;;;8.15;;
37383;SDS011;23258;49.718;11.082;2023-03-03T10:33:14;9.80;;;7.40;;
37383;SDS011;23258;49.718;11.082;2023-03-03T10:35:53;10.60;;;7.85;;
37383;SDS011;23258;49.718;11.082;2023-03-03T10:41:26;9.30;;;7.05;;
37383;SDS011;23258;49.718;11.082;2023-03-03T10:44:02;8.85;;;7.35;;
37383;SDS011;23258;49.718;11.082;2023-03-03T10:46:37;10.95;;;8.18;;
37383;SDS011;23258;49.718;11.082;2023-03-03T10:49:16;13.10;;;7.75;;
37383;SDS011;23258;49.718;11.082;2023-03-03T10:51:52;7.72;;;6.93;;
37383;SDS011;23258;49.718;11.082;2023-03-03T10:54:28;8.93;;;7.22;;
37383;SDS011;23258;49.718;11.082;2023-03-03T10:56:59;10.18;;;7.68;;
37383;SDS011;23258;49.718;11.082;2023-03-03T10:59:43;9.77;;;7.20;;
37383;SDS011;23258;49.718;11.082;2023-03-03T11:02:20;10.10;;;7.20;;
37383;SDS011;23258;49.718;11.082;2023-03-03T11:04:56;8.20;;;6.82;;
37383;SDS011;23258;49.718;11.082;2023-03-03T11:07:30;10.23;;;7.50;;
37383;SDS011;23258;49.718;11.082;2023-03-03T11:10:04;12.32;;;8.75;;
37383;SDS011;23258;49.718;11.082;2023-03-03T11:12:43;11.45;;;8.82;;
37383;SDS011;23258;49.718;11.082;2023-03-03T11:15:21;13.10;;;8.85;;
37383;SDS011;23258;49.718;11.082;2023-03-03T11:17:56;9.23;;;6.78;;
37383;SDS011;23258;49.718;11.082;2023-03-03T11:20:33;10.60;;;7.35;;
37383;SDS011;23258;49.718;11.082;2023-03-03T11:23:08;10.77;;;8.10;;
37383;SDS011;23258;49.718;11.082;2023-03-03T11:25:39;10.90;;;8.10;;
37383;SDS011;23258;49.718;11.082;2023-03-03T11:28:16;12.27;;;8.52;;
37383;SDS011;23258;49.718;11.082;2023-03-03T11:30:59;10.48;;;7.93;;
37383;SDS011;23258;49.718;11.082;2023-03-03T11:33:33;10.85;;;8.43;;
37383;SDS011;23258;49.718;11.082;2023-03-03T11:36:11;11.10;;;8.35;;
37383;SDS011;23258;49.718;11.082;2023-03-03T11:38:45;9.13;;;7.88;;
37383;SDS011;23258;49.718;11.082;2023-03-03T11:41:19;9.43;;;7.40;;
37383;SDS011;23258;49.718;11.082;2023-03-03T11:43:52;8.35;;;6.88;;
37383;SDS011;23258;49.718;11.082;2023-03-03T11:46:24;9.00;;;7.25;;
37383;SDS011;23258;49.718;11.082;2023-03-03T11:48:57;13.43;;;8.45;;
37383;SDS011;23258;49.718;11.082;2023-03-03T11:51:34;10.23;;;8.52;;
37383;SDS011;23258;49.718;11.082;2023-03-03T11:54:08;13.02;;;8.38;;
37383;SDS011;23258;49.718;11.082;2023-03-03T11:56:39;13.85;;;8.95;;
37383;SDS011;23258;49.718;11.082;2023-03-03T11:59:16;9.10;;;8.10;;
37383;SDS011;23258;49.718;11.082;2023-03-03T12:01:49;12.63;;;8.30;;
37383;SDS011;23258;49.718;11.082;2023-03-03T12:04:19;11.05;;;7.60;;
37383;SDS011;23258;49.718;11.082;2023-03-03T12:06:56;14.02;;;8.57;;
37383;SDS011;23258;49.718;11.082;2023-03-03T12:09:45;12.43;;;8.13;;
37383;SDS011;23258;49.718;11.082;2023-03-03T12:12:18;10.00;;;8.18;;
37383;SDS011;23258;49.718;11.082;2023-03-03T12:14:55;12.80;;;7.75;;
37383;SDS011;23258;49.718;11.082;2023-03-03T12:17:37;10.90;;;8.18;;
37383;SDS011;23258;49.718;11.082;2023-03-03T12:20:08;8.52;;;7.45;;
37383;SDS011;23258;49.718;11.082;2023-03-03T12:22:47;10.77;;;8.10;;
37383;SDS011;23258;49.718;11.082;2023-03-03T12:25:33;10.20;;;7.03;;
37383;SDS011;23258;49.718;11.082;2023-03-03T12:28:04;10.10;;;7.97;;
37383;SDS011;23258;49.718;11.082;2023-03-03T12:33:41;9.77;;;8.05;;
37383;SDS011;23258;49.718;11.082;2023-03-03T12:36:16;10.27;;;7.50;;
37383;SDS011;23258;49.718;11.082;2023-03-03T12:38:51;13.15;;;7.80;;
37383;SDS011;23258;49.718;11.082;2023-03-03T12:41:26;7.93;;;6.72;;
37383;SDS011;23258;49.718;11.082;2023-03-03T12:43:58;9.32;;;7.15;;
37383;SDS011;23258;49.718;11.082;2023-03-03T12:46:34;11.57;;;7.20;;
37383;SDS011;23258;49.718;11.082;2023-03-03T12:49:04;10.10;;;7.30;;
37383;SDS011;23258;49.718;11.082;2023-03-03T12:51:36;10.90;;;7.70;;
37383;SDS011;23258;49.718;11.082;2023-03-03T12:54:24;10.82;;;7.25;;
37383;SDS011;23258;49.718;11.082;2023-03-03T12:57:04;10.63;;;7.45;;
37383;SDS011;23258;49.718;11.082;2023-03-03T12:59:38;10.38;;;7.72;;
37383;SDS011;23258;49.718;11.082;2023-03-03T13:05:04;7.93;;;7.10;;
37383;SDS011;23258;49.718;11.082;2023-03-03T13:07:39;8.93;;;7.32;;
37383;SDS011;23258;49.718;11.082;2023-03-03T13:10:15;8.27;;;6.57;;
37383;SDS011;23258;49.718;11.082;2023-03-03T13:12:47;9.32;;;7.20;;
37383;SDS011;23258;49.718;11.082;2023-03-03T13:15:20;9.93;;;6.90;;
37383;SDS011;23258;49.718;11.082;2023-03-03T13:18:14;8.35;;;6.97;;
37383;SDS011;23258;49.718;11.082;2023-03-03T13:20:47;8.50;;;7.07;;
37383;SDS011;23258;49.718;11.082;2023-03-03T13:23:21;8.50;;;7.30;;
37383;SDS011;23258;49.718;11.082;2023-03-03T13:25:56;7.93;;;6.25;;
37383;SDS011;23258;49.718;11.082;2023-03-03T13:28:29;9.07;;;6.78;;
37383;SDS011;23258;49.718;11.082;2023-03-03T13:31:02;12.70;;;7.15;;
37383;SDS011;23258;49.718;11.082;2023-03-03T13:33:34;8.10;;;6.90;;
37383;SDS011;23258;49.718;11.082;2023-03-03T13:36:06;9.65;;;7.15;;
37383;SDS011;23258;49.718;11.082;2023-03-03T13:38:39;8.13;;;6.45;;
37383;SDS011;23258;49.718;11.082;2023-03-03T13:41:14;8.75;;;6.80;;
37383;SDS011;23258;49.718;11.082;2023-03-03T13:43:45;9.07;;;7.20;;
37383;SDS011;23258;49.718;11.082;2023-03-03T13:46:16;8.15;;;6.60;;
37383;SDS011;23258;49.718;11.082;2023-03-03T13:48:51;7.70;;;6.72;;
37383;SDS011;23258;49.718;11.082;2023-03-03T13:51:25;8.00;;;6.57;;
37383;SDS011;23258;49.718;11.082;2023-03-03T13:53:58;9.68;;;6.80;;
37383;SDS011;23258;49.718;11.082;2023-03-03T13:56:39;8.60;;;6.97;;
37383;SDS011;23258;49.718;11.082;2023-03-03T13:59:12;10.15;;;6.82;;
37383;SDS011;23258;49.718;11.082;2023-03-03T14:01:48;7.95;;;6.90;;
37383;SDS011;23258;49.718;11.082;2023-03-03T14:04:27;9.85;;;6.38;;
37383;SDS011;23258;49.718;11.082;2023-03-03T14:07:00;7.57;;;6.68;;
37383;SDS011;23258;49.718;11.082;2023-03-03T14:09:41;6.88;;;5.75;;
37383;SDS011;23258;49.718;11.082;2023-03-03T14:12:19;8.32;;;5.97;;
37383;SDS011;23258;49.718;11.082;2023-03-03T14:14:52;6.80;;;5.88;;
37383;SDS011;23258;49.718;11.082;2023-03-03T14:17:28;9.75;;;6.07;;
37383;SDS011;23258;49.718;11.082;2023-03-03T14:20:02;8.98;;;6.18;;
37383;SDS011;23258;49.718;11.082;2023-03-03T14:22:36;7.70;;;5.97;;
37383;SDS011;23258;49.718;11.082;2023-03-03T14:25:09;9.13;;;6.28;;
37383;SDS011;23258;49.718;11.082;2023-03-03T14:27:57;9.43;;;6.78;;
37383;SDS011;23258;49.718;11.082;2023-03-03T14:30:29;8.40;;;6.47;;
37383;SDS011;23258;49.718;11.082;2023-03-03T14:33:01;6.57;;;5.40;;
37383;SDS011;23258;49.718;11.082;2023-03-03T14:35:31;8.88;;;6.40;;
37383;SDS011;23258;49.718;11.082;2023-03-03T14:38:02;8.65;;;6.10;;
37383;SDS011;23258;49.718;11.082;2023-03-03T14:40:35;10.48;;;5.82;;
37383;SDS011;23258;49.718;11.082;2023-03-03T14:43:21;8.57;;;6.03;;
37383;SDS011;23258;49.718;11.082;2023-03-03T14:45:51;10.68;;;5.95;;
37383;SDS011;23258;49.718;11.082;2023-03-03T14:48:22;6.35;;;5.35;;
37383;SDS011;23258;49.718;11.082;2023-03-03T14:50:53;7.45;;;5.63;;
37383;SDS011;23258;49.718;11.082;2023-03-03T14:53:30;6.60;;;5.60;;
37383;SDS011;23258;49.718;11.082;2023-03-03T14:56:15;6.75;;;5.70;;
37383;SDS011;23258;49.718;11.082;2023-03-03T14:58:50;6.70;;;5.43;;
37383;SDS011;23258;49.718;11.082;2023-03-03T15:01:21;6.90;;;6.18;;
37383;SDS011;23258;49.718;11.082;2023-03-03T15:03:58;7.68;;;5.78;;